sensor_id;sensor_type;location;lat;lon;timestamp;pressure;altitude;pressure_sealevel;temperature;humidity
6853;BME280;3465;42.144;24.722;2024-03-08T00:00:42;99987.22;;;6.84;79.95
6853;BME280;3465;42.144;24.722;2024-03-08T00:03:08;99981.81;;;6.89;80.18
6853;BME280;3465;42.144;24.722;2024-03-08T00:05:35;99982.41;;;6.95;79.89
6853;BME280;3465;42.144;24.722;2024-03-08T00:08:01;99980.88;;;6.91;79.99
6853;BME280;3465;42.144;24.722;2024-03-08T00:10:27;99976.56;;;6.71;80.06
6853;BME280;3465;42.144;24.722;2024-03-08T00:12:54;99975.34;;;6.80;79.84
6853;BME280;3465;42.144;24.722;2024-03-08T00:15:20;99975.97;;;6.85;78.96
6853;BME280;3465;42.144;24.722;2024-03-08T00:17:48;99978.19;;;6.74;79.18
6853;BME280;3465;42.144;24.722;2024-03-08T00:20:14;99967.72;;;6.77;79.45
6853;BME280;3465;42.144;24.722;2024-03-08T00:22:39;99972.41;;;6.67;79.61
6853;BME280;3465;42.144;24.722;2024-03-08T00:25:06;99969.66;;;6.72;80.23
6853;BME280;3465;42.144;24.722;2024-03-08T00:27:34;99966.81;;;6.58;79.92
6853;BME280;3465;42.144;24.722;2024-03-08T00:29:59;99967.63;;;6.58;80.66
6853;BME280;3465;42.144;24.722;2024-03-08T00:32:25;99971.56;;;6.67;80.52
6853;BME280;3465;42.144;24.722;2024-03-08T00:34:55;99958.41;;;6.73;79.53
6853;BME280;3465;42.144;24.722;2024-03-08T00:37:21;99976.56;;;6.71;79.45
6853;BME280;3465;42.144;24.722;2024-03-08T00:39:48;99965.19;;;6.75;79.10
6853;BME280;3465;42.144;24.722;2024-03-08T00:42:15;99967.00;;;6.73;79.37
6853;BME280;3465;42.144;24.722;2024-03-08T00:44:41;99969.66;;;6.72;78.90
6853;BME280;3465;42.144;24.722;2024-03-08T00:47:06;99972.53;;;6.64;79.79
6853;BME280;3465;42.144;24.722;2024-03-08T00:49:32;99971.47;;;6.70;79.21
6853;BME280;3465;42.144;24.722;2024-03-08T00:51:57;99970.63;;;6.69;80.06
6853;BME280;3465;42.144;24.722;2024-03-08T00:54:23;99968.56;;;6.77;79.32
6853;BME280;3465;42.144;24.722;2024-03-08T00:56:48;99965.78;;;6.82;78.71
6853;BME280;3465;42.144;24.722;2024-03-08T00:59:14;99961.97;;;6.70;78.90
6853;BME280;3465;42.144;24.722;2024-03-08T01:01:40;99963.56;;;6.73;79.75
6853;BME280;3465;42.144;24.722;2024-03-08T01:04:06;99959.19;;;6.75;79.25
6853;BME280;3465;42.144;24.722;2024-03-08T01:06:33;99962.94;;;6.68;79.19
6853;BME280;3465;42.144;24.722;2024-03-08T01:08:58;99966.50;;;6.65;78.84
6853;BME280;3465;42.144;24.722;2024-03-08T01:11:24;99969.06;;;6.65;79.48
6853;BME280;3465;42.144;24.722;2024-03-08T01:13:49;99964.09;;;6.61;80.12
6853;BME280;3465;42.144;24.722;2024-03-08T01:18:44;99956.28;;;6.62;79.17
6853;BME280;3465;42.144;24.722;2024-03-08T01:21:10;99945.84;;;6.65;79.08
6853;BME280;3465;42.144;24.722;2024-03-08T01:23:35;99957.78;;;6.68;79.11
6853;BME280;3465;42.144;24.722;2024-03-08T01:26:01;99962.09;;;6.67;78.65
6853;BME280;3465;42.144;24.722;2024-03-08T01:28:28;99956.88;;;6.69;79.45
6853;BME280;3465;42.144;24.722;2024-03-08T01:30:53;99959.63;;;6.64;80.05
6853;BME280;3465;42.144;24.722;2024-03-08T01:33:25;99955.56;;;6.59;79.91
6853;BME280;3465;42.144;24.722;2024-03-08T01:35:52;99962.16;;;6.66;79.44
6853;BME280;3465;42.144;24.722;2024-03-08T01:38:21;99964.53;;;6.70;79.68
6853;BME280;3465;42.144;24.722;2024-03-08T01:40:47;99956.75;;;6.72;79.45
6853;BME280;3465;42.144;24.722;2024-03-08T01:45:41;99968.66;;;6.74;78.89
6853;BME280;3465;42.144;24.722;2024-03-08T01:48:07;99969.31;;;6.59;79.45
6853;BME280;3465;42.144;24.722;2024-03-08T01:50:32;99974.59;;;6.56;80.18
6853;BME280;3465;42.144;24.722;2024-03-08T01:52:59;99972.34;;;6.49;80.80
6853;BME280;3465;42.144;24.722;2024-03-08T01:55:25;99965.19;;;6.55;80.28
6853;BME280;3465;42.144;24.722;2024-03-08T01:57:51;99962.63;;;6.55;80.17
6853;BME280;3465;42.144;24.722;2024-03-08T02:00:18;99963.97;;;6.64;80.65
6853;BME280;3465;42.144;24.722;2024-03-08T02:02:46;99960.56;;;6.63;79.58
6853;BME280;3465;42.144;24.722;2024-03-08T02:05:12;99967.88;;;6.52;79.93
6853;BME280;3465;42.144;24.722;2024-03-08T02:07:41;99962.69;;;6.54;79.92
6853;BME280;3465;42.144;24.722;2024-03-08T02:10:09;99963.47;;;6.56;79.83
6853;BME280;3465;42.144;24.722;2024-03-08T02:12:35;99973.38;;;6.45;79.82
6853;BME280;3465;42.144;24.722;2024-03-08T02:15:01;99964.22;;;6.38;80.32
6853;BME280;3465;42.144;24.722;2024-03-08T02:17:26;99966.53;;;6.44;81.07
6853;BME280;3465;42.144;24.722;2024-03-08T02:19:52;99965.25;;;6.54;80.01
6853;BME280;3465;42.144;24.722;2024-03-08T02:22:17;99967.31;;;6.46;80.80
6853;BME280;3465;42.144;24.722;2024-03-08T02:24:43;99966.03;;;6.36;80.31
6853;BME280;3465;42.144;24.722;2024-03-08T02:27:08;99963.19;;;6.42;80.85
6853;BME280;3465;42.144;24.722;2024-03-08T02:29:37;99959.75;;;6.41;81.00
6853;BME280;3465;42.144;24.722;2024-03-08T02:32:02;99968.53;;;6.37;81.24
6853;BME280;3465;42.144;24.722;2024-03-08T02:34:28;99968.88;;;6.28;81.46
6853;BME280;3465;42.144;24.722;2024-03-08T02:36:56;99967.09;;;6.30;81.06
6853;BME280;3465;42.144;24.722;2024-03-08T02:39:22;99968.59;;;6.36;81.20
6853;BME280;3465;42.144;24.722;2024-03-08T02:41:47;99968.47;;;6.39;81.26
6853;BME280;3465;42.144;24.722;2024-03-08T02:44:13;99969.22;;;6.41;81.20
6853;BME280;3465;42.144;24.722;2024-03-08T02:46:38;99969.47;;;6.35;81.25
6853;BME280;3465;42.144;24.722;2024-03-08T02:49:04;99967.69;;;6.37;81.18
6853;BME280;3465;42.144;24.722;2024-03-08T02:51:31;99964.91;;;6.41;81.21
6853;BME280;3465;42.144;24.722;2024-03-08T02:53:57;99969.31;;;6.59;82.75
6853;BME280;3465;42.144;24.722;2024-03-08T02:56:22;99974.88;;;6.70;81.04
6853;BME280;3465;42.144;24.722;2024-03-08T02:58:48;99970.44;;;6.74;81.26
6853;BME280;3465;42.144;24.722;2024-03-08T03:01:15;99975.88;;;6.87;80.00
6853;BME280;3465;42.144;24.722;2024-03-08T03:03:41;99974.50;;;6.59;80.49
6853;BME280;3465;42.144;24.722;2024-03-08T03:06:07;99971.63;;;6.45;80.52
6853;BME280;3465;42.144;24.722;2024-03-08T03:08:32;99976.28;;;6.37;81.29
6853;BME280;3465;42.144;24.722;2024-03-08T03:10:58;99976.34;;;6.36;81.13
6853;BME280;3465;42.144;24.722;2024-03-08T03:13:23;99974.53;;;6.38;81.47
6853;BME280;3465;42.144;24.722;2024-03-08T03:15:49;99979.34;;;6.25;81.81
6853;BME280;3465;42.144;24.722;2024-03-08T03:18:14;99981.38;;;6.17;82.20
6853;BME280;3465;42.144;24.722;2024-03-08T03:20:41;99978.38;;;6.06;83.35
6853;BME280;3465;42.144;24.722;2024-03-08T03:23:08;99983.75;;;6.02;83.52
6853;BME280;3465;42.144;24.722;2024-03-08T03:25:34;99984.63;;;6.01;84.10
6853;BME280;3465;42.144;24.722;2024-03-08T03:28:03;99986.00;;;6.09;84.70
6853;BME280;3465;42.144;24.722;2024-03-08T03:30:30;99983.50;;;6.08;84.73
6853;BME280;3465;42.144;24.722;2024-03-08T03:33:02;99989.69;;;6.04;84.65
6853;BME280;3465;42.144;24.722;2024-03-08T03:35:32;99988.28;;;5.95;85.06
6853;BME280;3465;42.144;24.722;2024-03-08T03:37:57;99997.59;;;5.99;85.73
6853;BME280;3465;42.144;24.722;2024-03-08T03:40:39;99985.94;;;5.89;85.74
6853;BME280;3465;42.144;24.722;2024-03-08T03:43:05;99990.16;;;5.91;86.16
6853;BME280;3465;42.144;24.722;2024-03-08T03:45:30;99996.25;;;5.89;86.50
6853;BME280;3465;42.144;24.722;2024-03-08T03:48:01;99982.00;;;5.79;86.15
6853;BME280;3465;42.144;24.722;2024-03-08T03:50:27;99995.00;;;5.76;86.17
6853;BME280;3465;42.144;24.722;2024-03-08T03:52:53;99997.41;;;5.80;86.55
6853;BME280;3465;42.144;24.722;2024-03-08T03:55:18;99999.09;;;5.81;86.79
6853;BME280;3465;42.144;24.722;2024-03-08T03:57:45;99999.69;;;5.89;87.04
6853;BME280;3465;42.144;24.722;2024-03-08T04:00:11;100001.69;;;5.81;87.24
6853;BME280;3465;42.144;24.722;2024-03-08T04:02:40;99996.91;;;5.71;87.74
6853;BME280;3465;42.144;24.722;2024-03-08T04:05:07;100004.34;;;5.78;87.01
6853;BME280;3465;42.144;24.722;2024-03-08T04:07:34;100007.00;;;5.77;88.12
6853;BME280;3465;42.144;24.722;2024-03-08T04:10:03;99993.41;;;5.73;87.59
6853;BME280;3465;42.144;24.722;2024-03-08T04:12:29;99990.69;;;5.76;87.22
6853;BME280;3465;42.144;24.722;2024-03-08T04:14:55;100004.34;;;5.78;87.06
6853;BME280;3465;42.144;24.722;2024-03-08T04:17:21;100003.88;;;5.69;87.47
6853;BME280;3465;42.144;24.722;2024-03-08T04:19:47;100007.88;;;5.76;85.84
6853;BME280;3465;42.144;24.722;2024-03-08T04:22:14;100006.06;;;5.79;86.98
6853;BME280;3465;42.144;24.722;2024-03-08T04:24:39;100009.34;;;5.83;86.43
6853;BME280;3465;42.144;24.722;2024-03-08T04:27:06;100006.66;;;5.86;85.87
6853;BME280;3465;42.144;24.722;2024-03-08T04:29:32;100012.94;;;5.79;85.76
6853;BME280;3465;42.144;24.722;2024-03-08T04:31:58;100006.22;;;5.75;85.86
6853;BME280;3465;42.144;24.722;2024-03-08T04:34:23;100016.59;;;5.73;86.33
6853;BME280;3465;42.144;24.722;2024-03-08T04:36:49;100008.84;;;5.73;85.92
6853;BME280;3465;42.144;24.722;2024-03-08T04:39:15;100010.53;;;5.74;86.05
6853;BME280;3465;42.144;24.722;2024-03-08T04:41:41;99976.03;;;5.55;86.20
6853;BME280;3465;42.144;24.722;2024-03-08T04:44:09;100020.41;;;5.63;86.17
6853;BME280;3465;42.144;24.722;2024-03-08T04:46:36;100016.97;;;5.63;85.94
6853;BME280;3465;42.144;24.722;2024-03-08T04:49:01;100024.56;;;5.66;86.03
6853;BME280;3465;42.144;24.722;2024-03-08T04:51:27;100025.44;;;5.66;85.59
6853;BME280;3465;42.144;24.722;2024-03-08T04:53:52;100021.34;;;5.61;86.14
6853;BME280;3465;42.144;24.722;2024-03-08T04:56:19;100024.09;;;5.56;86.03
6853;BME280;3465;42.144;24.722;2024-03-08T04:58:47;100031.03;;;5.54;85.55
6853;BME280;3465;42.144;24.722;2024-03-08T05:01:12;100030.19;;;5.54;86.00
6853;BME280;3465;42.144;24.722;2024-03-08T05:03:38;100031.19;;;5.50;85.72
6853;BME280;3465;42.144;24.722;2024-03-08T05:06:04;100033.81;;;5.48;85.29
6853;BME280;3465;42.144;24.722;2024-03-08T05:08:30;100032.19;;;5.46;85.90
6853;BME280;3465;42.144;24.722;2024-03-08T05:10:55;100025.09;;;5.29;85.92
6853;BME280;3465;42.144;24.722;2024-03-08T05:13:21;100033.38;;;5.37;85.72
6853;BME280;3465;42.144;24.722;2024-03-08T05:15:49;100041.16;;;5.36;85.39
6853;BME280;3465;42.144;24.722;2024-03-08T05:18:15;100039.53;;;5.33;86.24
6853;BME280;3465;42.144;24.722;2024-03-08T05:20:41;100050.00;;;5.29;86.24
6853;BME280;3465;42.144;24.722;2024-03-08T05:23:07;100054.03;;;5.36;86.54
6853;BME280;3465;42.144;24.722;2024-03-08T05:25:33;100058.38;;;5.34;86.35
6853;BME280;3465;42.144;24.722;2024-03-08T05:27:59;100059.50;;;5.27;86.00
6853;BME280;3465;42.144;24.722;2024-03-08T05:30:24;100067.19;;;5.28;86.32
6853;BME280;3465;42.144;24.722;2024-03-08T05:32:50;100072.38;;;5.27;86.69
6853;BME280;3465;42.144;24.722;2024-03-08T05:35:15;100069.44;;;5.37;86.06
6853;BME280;3465;42.144;24.722;2024-03-08T05:37:41;100066.59;;;5.45;85.95
6853;BME280;3465;42.144;24.722;2024-03-08T05:40:10;100069.75;;;5.53;85.16
6853;BME280;3465;42.144;24.722;2024-03-08T05:42:36;100075.84;;;5.50;86.13
6853;BME280;3465;42.144;24.722;2024-03-08T05:45:04;100080.81;;;5.55;85.16
6853;BME280;3465;42.144;24.722;2024-03-08T05:47:31;100077.56;;;5.50;84.85
6853;BME280;3465;42.144;24.722;2024-03-08T05:49:58;100077.47;;;5.53;85.07
6853;BME280;3465;42.144;24.722;2024-03-08T05:52:24;100083.47;;;5.53;84.65
6853;BME280;3465;42.144;24.722;2024-03-08T05:54:51;100093.88;;;5.50;84.96
6853;BME280;3465;42.144;24.722;2024-03-08T05:57:17;100095.78;;;5.45;85.31
6853;BME280;3465;42.144;24.722;2024-03-08T05:59:43;100105.28;;;5.43;85.94
6853;BME280;3465;42.144;24.722;2024-03-08T06:02:08;100094.44;;;5.58;85.15
6853;BME280;3465;42.144;24.722;2024-03-08T06:04:33;100096.00;;;5.62;84.45
6853;BME280;3465;42.144;24.722;2024-03-08T06:06:59;100092.38;;;5.68;85.89
6853;BME280;3465;42.144;24.722;2024-03-08T06:09:25;100099.84;;;5.75;84.76
6853;BME280;3465;42.144;24.722;2024-03-08T06:11:52;100097.91;;;5.80;84.21
6853;BME280;3465;42.144;24.722;2024-03-08T06:14:19;100106.31;;;5.87;84.09
6853;BME280;3465;42.144;24.722;2024-03-08T06:16:45;100110.75;;;5.83;83.46
6853;BME280;3465;42.144;24.722;2024-03-08T06:19:11;100109.38;;;5.96;83.71
6853;BME280;3465;42.144;24.722;2024-03-08T06:21:37;100116.34;;;5.94;83.26
6853;BME280;3465;42.144;24.722;2024-03-08T06:24:03;100116.41;;;5.68;84.29
6853;BME280;3465;42.144;24.722;2024-03-08T06:26:28;100111.03;;;5.74;85.00
6853;BME280;3465;42.144;24.722;2024-03-08T06:28:54;100116.25;;;5.73;84.62
6853;BME280;3465;42.144;24.722;2024-03-08T06:31:20;100125.56;;;5.77;83.42
6853;BME280;3465;42.144;24.722;2024-03-08T06:33:46;100119.69;;;5.72;84.27
6853;BME280;3465;42.144;24.722;2024-03-08T06:36:11;100123.41;;;5.65;83.86
6853;BME280;3465;42.144;24.722;2024-03-08T06:38:38;100127.63;;;5.67;84.36
6853;BME280;3465;42.144;24.722;2024-03-08T06:41:10;100128.41;;;5.69;84.39
6853;BME280;3465;42.144;24.722;2024-03-08T06:43:42;100120.56;;;5.72;84.43
6853;BME280;3465;42.144;24.722;2024-03-08T06:46:08;100120.50;;;5.74;84.67
6853;BME280;3465;42.144;24.722;2024-03-08T06:48:33;100121.88;;;5.84;83.82
6853;BME280;3465;42.144;24.722;2024-03-08T06:51:00;100123.13;;;5.97;83.95
6853;BME280;3465;42.144;24.722;2024-03-08T06:53:25;100128.34;;;5.71;84.00
6853;BME280;3465;42.144;24.722;2024-03-08T06:55:51;100123.91;;;5.74;83.95
6853;BME280;3465;42.144;24.722;2024-03-08T06:58:16;100136.06;;;5.71;83.79
6853;BME280;3465;42.144;24.722;2024-03-08T07:00:42;100137.03;;;5.68;84.43
6853;BME280;3465;42.144;24.722;2024-03-08T07:03:08;100132.94;;;5.87;83.45
6853;BME280;3465;42.144;24.722;2024-03-08T07:05:37;100132.03;;;5.88;83.46
6853;BME280;3465;42.144;24.722;2024-03-08T07:08:03;100138.66;;;5.95;84.50
6853;BME280;3465;42.144;24.722;2024-03-08T07:10:29;100142.59;;;6.06;83.63
6853;BME280;3465;42.144;24.722;2024-03-08T07:12:54;100138.88;;;6.13;82.72
6853;BME280;3465;42.144;24.722;2024-03-08T07:15:20;100133.28;;;6.02;82.92
6853;BME280;3465;42.144;24.722;2024-03-08T07:17:46;100138.31;;;6.05;83.58
6853;BME280;3465;42.144;24.722;2024-03-08T07:20:12;100144.31;;;6.05;83.06
6853;BME280;3465;42.144;24.722;2024-03-08T07:22:39;100146.03;;;6.05;82.79
6853;BME280;3465;42.144;24.722;2024-03-08T07:25:05;100143.53;;;6.03;83.18
6853;BME280;3465;42.144;24.722;2024-03-08T07:27:56;100145.38;;;6.00;83.41
6853;BME280;3465;42.144;24.722;2024-03-08T07:30:23;100145.25;;;6.03;83.39
6853;BME280;3465;42.144;24.722;2024-03-08T07:33:07;100151.09;;;6.08;83.00
6853;BME280;3465;42.144;24.722;2024-03-08T07:35:33;100152.09;;;6.04;83.50
6853;BME280;3465;42.144;24.722;2024-03-08T07:38:06;100152.13;;;6.02;83.19
6853;BME280;3465;42.144;24.722;2024-03-08T07:40:39;100153.91;;;6.02;83.14
6853;BME280;3465;42.144;24.722;2024-03-08T07:43:07;100158.72;;;6.11;82.92
6853;BME280;3465;42.144;24.722;2024-03-08T07:45:32;100154.47;;;6.10;81.69
6853;BME280;3465;42.144;24.722;2024-03-08T07:47:58;100157.91;;;6.09;81.26
6853;BME280;3465;42.144;24.722;2024-03-08T07:50:23;100153.56;;;6.11;82.02
6853;BME280;3465;42.144;24.722;2024-03-08T07:52:49;100156.69;;;6.19;80.57
6853;BME280;3465;42.144;24.722;2024-03-08T07:55:15;100158.63;;;6.14;80.68
6853;BME280;3465;42.144;24.722;2024-03-08T07:57:40;100160.97;;;6.20;81.02
6853;BME280;3465;42.144;24.722;2024-03-08T08:00:08;100163.25;;;6.27;80.81
6853;BME280;3465;42.144;24.722;2024-03-08T08:02:34;100164.34;;;6.43;80.72
6853;BME280;3465;42.144;24.722;2024-03-08T08:05:00;100155.66;;;6.46;80.18
6853;BME280;3465;42.144;24.722;2024-03-08T08:07:26;100168.28;;;6.30;80.74
6853;BME280;3465;42.144;24.722;2024-03-08T08:09:52;100167.66;;;6.47;80.38
6853;BME280;3465;42.144;24.722;2024-03-08T08:12:18;100169.53;;;6.65;79.31
6853;BME280;3465;42.144;24.722;2024-03-08T08:14:43;100177.97;;;6.47;80.15
6853;BME280;3465;42.144;24.722;2024-03-08T08:17:09;100172.41;;;6.57;79.95
6853;BME280;3465;42.144;24.722;2024-03-08T08:19:35;100175.41;;;6.68;79.63
6853;BME280;3465;42.144;24.722;2024-03-08T08:22:04;100173.25;;;6.79;78.88
6853;BME280;3465;42.144;24.722;2024-03-08T08:24:29;100174.91;;;6.82;78.36
6853;BME280;3465;42.144;24.722;2024-03-08T08:26:55;100174.94;;;6.80;78.23
6853;BME280;3465;42.144;24.722;2024-03-08T08:29:21;100164.03;;;6.74;78.66
6853;BME280;3465;42.144;24.722;2024-03-08T08:31:48;100172.09;;;6.87;78.24
6853;BME280;3465;42.144;24.722;2024-03-08T08:34:15;100170.38;;;6.87;77.03
6853;BME280;3465;42.144;24.722;2024-03-08T08:36:42;100173.88;;;6.86;76.95
6853;BME280;3465;42.144;24.722;2024-03-08T08:39:07;100173.50;;;6.95;77.60
6853;BME280;3465;42.144;24.722;2024-03-08T08:41:39;100178.31;;;7.04;76.88
6853;BME280;3465;42.144;24.722;2024-03-08T08:44:04;100168.44;;;7.14;76.66
6853;BME280;3465;42.144;24.722;2024-03-08T08:46:35;100168.81;;;7.25;76.97
6853;BME280;3465;42.144;24.722;2024-03-08T08:49:01;100175.88;;;7.41;76.29
6853;BME280;3465;42.144;24.722;2024-03-08T08:51:27;100165.38;;;7.46;75.36
6853;BME280;3465;42.144;24.722;2024-03-08T08:53:53;100172.34;;;7.44;75.02
6853;BME280;3465;42.144;24.722;2024-03-08T08:56:18;100172.69;;;7.56;76.04
6853;BME280;3465;42.144;24.722;2024-03-08T08:58:44;100161.75;;;7.70;74.50
6853;BME280;3465;42.144;24.722;2024-03-08T09:01:10;100171.41;;;7.65;73.50
6853;BME280;3465;42.144;24.722;2024-03-08T09:03:36;100173.75;;;7.51;75.14
6853;BME280;3465;42.144;24.722;2024-03-08T09:06:04;100160.00;;;7.30;75.17
6853;BME280;3465;42.144;24.722;2024-03-08T09:08:29;100158.56;;;7.43;74.65
6853;BME280;3465;42.144;24.722;2024-03-08T09:10:55;100171.81;;;7.36;74.46
6853;BME280;3465;42.144;24.722;2024-03-08T09:13:21;100150.72;;;7.05;75.53
6853;BME280;3465;42.144;24.722;2024-03-08T09:15:46;100156.41;;;7.13;75.18
6853;BME280;3465;42.144;24.722;2024-03-08T09:18:12;100165.19;;;7.09;77.38
6853;BME280;3465;42.144;24.722;2024-03-08T09:20:37;100166.84;;;7.51;73.85
6853;BME280;3465;42.144;24.722;2024-03-08T09:23:03;100164.66;;;7.62;75.00
6853;BME280;3465;42.144;24.722;2024-03-08T09:25:29;100167.25;;;7.62;73.76
6853;BME280;3465;42.144;24.722;2024-03-08T09:27:55;100174.66;;;7.70;72.43
6853;BME280;3465;42.144;24.722;2024-03-08T09:30:21;100175.44;;;7.52;72.51
6853;BME280;3465;42.144;24.722;2024-03-08T09:32:47;100178.41;;;7.63;72.75
6853;BME280;3465;42.144;24.722;2024-03-08T09:35:12;100176.94;;;7.57;73.67
6853;BME280;3465;42.144;24.722;2024-03-08T09:37:38;100168.84;;;7.65;72.26
6853;BME280;3465;42.144;24.722;2024-03-08T09:40:04;100173.81;;;7.69;71.82
6853;BME280;3465;42.144;24.722;2024-03-08T09:42:35;100179.69;;;7.73;71.91
6853;BME280;3465;42.144;24.722;2024-03-08T09:45:08;100187.13;;;7.81;72.20
6853;BME280;3465;42.144;24.722;2024-03-08T09:47:37;100171.31;;;7.68;71.63
6853;BME280;3465;42.144;24.722;2024-03-08T09:50:09;100178.66;;;7.77;72.05
6853;BME280;3465;42.144;24.722;2024-03-08T09:52:38;100182.75;;;7.83;71.91
6853;BME280;3465;42.144;24.722;2024-03-08T09:55:06;100181.81;;;7.84;71.93
6853;BME280;3465;42.144;24.722;2024-03-08T09:57:36;100172.66;;;7.77;71.83
6853;BME280;3465;42.144;24.722;2024-03-08T10:00:02;100180.78;;;7.88;72.10
6853;BME280;3465;42.144;24.722;2024-03-08T10:02:33;100168.56;;;7.91;72.38
6853;BME280;3465;42.144;24.722;2024-03-08T10:05:01;100176.97;;;7.96;71.16
6853;BME280;3465;42.144;24.722;2024-03-08T10:07:28;100175.00;;;8.01;71.65
6853;BME280;3465;42.144;24.722;2024-03-08T10:09:54;100171.97;;;7.92;72.15
6853;BME280;3465;42.144;24.722;2024-03-08T10:12:19;100169.13;;;7.98;71.55
6853;BME280;3465;42.144;24.722;2024-03-08T10:14:45;100171.16;;;8.10;70.93
6853;BME280;3465;42.144;24.722;2024-03-08T10:17:12;100163.69;;;8.04;71.03
6853;BME280;3465;42.144;24.722;2024-03-08T10:19:37;100166.63;;;7.96;70.70
6853;BME280;3465;42.144;24.722;2024-03-08T10:22:04;100162.78;;;8.05;71.07
6853;BME280;3465;42.144;24.722;2024-03-08T10:24:31;100167.88;;;8.06;70.81
6853;BME280;3465;42.144;24.722;2024-03-08T10:27:02;100167.16;;;8.23;70.25
6853;BME280;3465;42.144;24.722;2024-03-08T10:29:33;100164.44;;;8.26;70.83
6853;BME280;3465;42.144;24.722;2024-03-08T10:31:59;100161.47;;;8.15;70.90
6853;BME280;3465;42.144;24.722;2024-03-08T10:34:25;100149.75;;;8.26;70.36
6853;BME280;3465;42.144;24.722;2024-03-08T10:36:51;100160.19;;;8.23;70.51
6853;BME280;3465;42.144;24.722;2024-03-08T10:39:23;100153.28;;;8.24;69.98
6853;BME280;3465;42.144;24.722;2024-03-08T10:41:56;100155.25;;;8.19;69.65
6853;BME280;3465;42.144;24.722;2024-03-08T10:44:32;100144.66;;;8.25;70.33
6853;BME280;3465;42.144;24.722;2024-03-08T10:50:07;100138.72;;;8.77;68.81
6853;BME280;3465;42.144;24.722;2024-03-08T10:52:38;100134.22;;;8.81;67.61
6853;BME280;3465;42.144;24.722;2024-03-08T10:55:05;100135.59;;;8.88;67.53
6853;BME280;3465;42.144;24.722;2024-03-08T10:57:38;100130.28;;;8.91;67.73
6853;BME280;3465;42.144;24.722;2024-03-08T11:00:06;100131.34;;;9.04;66.50
6853;BME280;3465;42.144;24.722;2024-03-08T11:02:35;100136.19;;;9.11;67.21
6853;BME280;3465;42.144;24.722;2024-03-08T11:05:03;100124.34;;;9.40;65.53
6853;BME280;3465;42.144;24.722;2024-03-08T11:07:33;100129.97;;;9.48;66.33
6853;BME280;3465;42.144;24.722;2024-03-08T11:10:02;100131.72;;;9.97;63.87
6853;BME280;3465;42.144;24.722;2024-03-08T11:12:40;100120.81;;;10.70;61.75
6853;BME280;3465;42.144;24.722;2024-03-08T11:15:12;100116.25;;;10.89;59.91
6853;BME280;3465;42.144;24.722;2024-03-08T11:17:50;100110.25;;;11.03;60.09
6853;BME280;3465;42.144;24.722;2024-03-08T11:20:18;100112.78;;;11.34;59.51
6853;BME280;3465;42.144;24.722;2024-03-08T11:23:01;100108.47;;;11.33;59.58
6853;BME280;3465;42.144;24.722;2024-03-08T11:25:41;100093.63;;;10.46;59.64
6853;BME280;3465;42.144;24.722;2024-03-08T11:28:09;100116.16;;;10.91;60.76
6853;BME280;3465;42.144;24.722;2024-03-08T11:30:36;100113.19;;;10.67;59.59
6853;BME280;3465;42.144;24.722;2024-03-08T11:33:03;100119.22;;;10.21;62.05
6853;BME280;3465;42.144;24.722;2024-03-08T11:35:29;100110.59;;;10.67;62.06
6853;BME280;3465;42.144;24.722;2024-03-08T11:37:57;100104.97;;;11.34;60.19
6853;BME280;3465;42.144;24.722;2024-03-08T11:40:23;100113.16;;;10.98;60.50
6853;BME280;3465;42.144;24.722;2024-03-08T11:42:49;100120.00;;;10.54;61.24
6853;BME280;3465;42.144;24.722;2024-03-08T11:45:17;100110.16;;;10.90;60.24
6853;BME280;3465;42.144;24.722;2024-03-08T11:47:46;100102.88;;;11.55;58.78
6853;BME280;3465;42.144;24.722;2024-03-08T11:50:13;100109.50;;;11.88;57.94
6853;BME280;3465;42.144;24.722;2024-03-08T11:52:39;100111.16;;;11.89;57.54
6853;BME280;3465;42.144;24.722;2024-03-08T11:55:06;100102.97;;;11.67;56.80
6853;BME280;3465;42.144;24.722;2024-03-08T11:57:32;100090.56;;;12.41;55.93
6853;BME280;3465;42.144;24.722;2024-03-08T11:59:58;100092.19;;;13.22;54.56
6853;BME280;3465;42.144;24.722;2024-03-08T12:02:31;100088.78;;;14.33;50.46
6853;BME280;3465;42.144;24.722;2024-03-08T12:04:58;100082.31;;;15.21;49.32
6853;BME280;3465;42.144;24.722;2024-03-08T12:07:25;100079.19;;;16.17;45.62
6853;BME280;3465;42.144;24.722;2024-03-08T12:10:18;100092.41;;;15.71;45.74
6853;BME280;3465;42.144;24.722;2024-03-08T12:12:55;100090.84;;;16.02;46.11
6853;BME280;3465;42.144;24.722;2024-03-08T12:15:23;100087.75;;;15.18;46.19
6853;BME280;3465;42.144;24.722;2024-03-08T12:17:50;100091.28;;;14.35;48.14
6853;BME280;3465;42.144;24.722;2024-03-08T12:20:20;100089.06;;;13.42;49.16
6853;BME280;3465;42.144;24.722;2024-03-08T12:22:49;100084.75;;;12.77;51.50
6853;BME280;3465;42.144;24.722;2024-03-08T12:25:17;100083.28;;;12.73;53.16
6853;BME280;3465;42.144;24.722;2024-03-08T12:27:43;100078.81;;;12.48;53.53
6853;BME280;3465;42.144;24.722;2024-03-08T12:30:23;100076.59;;;12.42;54.17
6853;BME280;3465;42.144;24.722;2024-03-08T12:32:59;100072.19;;;11.60;57.75
6853;BME280;3465;42.144;24.722;2024-03-08T12:35:27;100073.88;;;11.33;58.54
6853;BME280;3465;42.144;24.722;2024-03-08T12:37:57;100086.44;;;11.11;59.46
6853;BME280;3465;42.144;24.722;2024-03-08T12:40:30;100077.91;;;10.63;59.27
6853;BME280;3465;42.144;24.722;2024-03-08T12:42:59;100080.94;;;10.56;60.55
6853;BME280;3465;42.144;24.722;2024-03-08T12:45:25;100062.84;;;10.39;61.46
6853;BME280;3465;42.144;24.722;2024-03-08T12:47:51;100071.59;;;10.22;61.72
6853;BME280;3465;42.144;24.722;2024-03-08T12:50:18;100061.88;;;10.26;61.46
6853;BME280;3465;42.144;24.722;2024-03-08T12:52:44;100073.09;;;10.26;62.03
6853;BME280;3465;42.144;24.722;2024-03-08T12:55:09;100062.50;;;9.98;60.89
6853;BME280;3465;42.144;24.722;2024-03-08T12:57:36;100064.09;;;10.00;61.99
6853;BME280;3465;42.144;24.722;2024-03-08T13:00:03;100078.75;;;9.86;61.56
6853;BME280;3465;42.144;24.722;2024-03-08T13:02:29;100079.13;;;9.78;61.24
6853;BME280;3465;42.144;24.722;2024-03-08T13:04:56;100078.75;;;9.86;62.19
6853;BME280;3465;42.144;24.722;2024-03-08T13:07:25;100064.75;;;9.88;62.02
6853;BME280;3465;42.144;24.722;2024-03-08T13:09:53;100074.78;;;10.11;62.13
6853;BME280;3465;42.144;24.722;2024-03-08T13:12:20;100072.47;;;10.05;61.56
6853;BME280;3465;42.144;24.722;2024-03-08T13:14:46;100072.34;;;10.24;60.14
6853;BME280;3465;42.144;24.722;2024-03-08T13:17:15;100060.28;;;10.23;60.78
6853;BME280;3465;42.144;24.722;2024-03-08T13:19:41;100068.25;;;10.20;60.52